sensor_id;sensor_type;location;lat;lon;timestamp;temperature;humidity
16287;DHT22;8251;53.568;10.018;2022-12-18T00:00:59;1.20;74.10
16287;DHT22;8251;53.568;10.018;2022-12-18T00:03:31;1.20;74.10
16287;DHT22;8251;53.568;10.018;2022-12-18T00:05:58;1.20;74.20
16287;DHT22;8251;53.568;10.018;2022-12-18T00:08:26;1.10;74.00
16287;DHT22;8251;53.568;10.018;2022-12-18T00:10:54;1.10;74.10
16287;DHT22;8251;53.568;10.018;2022-12-18T00:13:21;1.10;74.20
16287;DHT22;8251;53.568;10.018;2022-12-18T00:15:47;1.10;74.10
16287;DHT22;8251;53.568;10.018;2022-12-18T00:18:16;1.10;73.80
16287;DHT22;8251;53.568;10.018;2022-12-18T00:20:43;1.10;74.00
16287;DHT22;8251;53.568;10.018;2022-12-18T00:23:10;1.10;74.00
16287;DHT22;8251;53.568;10.018;2022-12-18T00:25:40;1.00;74.00
16287;DHT22;8251;53.568;10.018;2022-12-18T00:28:07;1.00;74.00
16287;DHT22;8251;53.568;10.018;2022-12-18T00:30:33;0.90;74.20
16287;DHT22;8251;53.568;10.018;2022-12-18T00:33:03;0.90;74.40
16287;DHT22;8251;53.568;10.018;2022-12-18T00:35:32;0.90;74.40
16287;DHT22;8251;53.568;10.018;2022-12-18T00:37:59;0.90;74.50
16287;DHT22;8251;53.568;10.018;2022-12-18T00:40:26;0.90;74.70
16287;DHT22;8251;53.568;10.018;2022-12-18T00:42:52;0.90;74.60
16287;DHT22;8251;53.568;10.018;2022-12-18T00:45:28;0.90;74.70
16287;DHT22;8251;53.568;10.018;2022-12-18T00:47:58;0.90;74.60
16287;DHT22;8251;53.568;10.018;2022-12-18T00:50:25;0.90;74.60
16287;DHT22;8251;53.568;10.018;2022-12-18T00:52:54;0.90;74.80
16287;DHT22;8251;53.568;10.018;2022-12-18T00:55:20;0.90;74.40
16287;DHT22;8251;53.568;10.018;2022-12-18T00:57:51;0.90;74.40
16287;DHT22;8251;53.568;10.018;2022-12-18T01:00:18;0.90;74.50
16287;DHT22;8251;53.568;10.018;2022-12-18T01:02:45;0.90;74.40
16287;DHT22;8251;53.568;10.018;2022-12-18T01:05:16;0.90;74.40
16287;DHT22;8251;53.568;10.018;2022-12-18T01:07:43;0.90;74.40
16287;DHT22;8251;53.568;10.018;2022-12-18T01:10:12;0.90;74.40
16287;DHT22;8251;53.568;10.018;2022-12-18T01:12:39;0.90;74.30
16287;DHT22;8251;53.568;10.018;2022-12-18T01:15:13;0.90;74.00
16287;DHT22;8251;53.568;10.018;2022-12-18T01:17:41;0.90;73.80
16287;DHT22;8251;53.568;10.018;2022-12-18T01:20:09;0.90;73.80
16287;DHT22;8251;53.568;10.018;2022-12-18T01:22:37;0.90;73.90
16287;DHT22;8251;53.568;10.018;2022-12-18T01:25:05;0.90;74.00
16287;DHT22;8251;53.568;10.018;2022-12-18T01:27:34;0.80;74.10
16287;DHT22;8251;53.568;10.018;2022-12-18T01:30:01;0.90;74.20
16287;DHT22;8251;53.568;10.018;2022-12-18T01:32:30;0.80;74.20
16287;DHT22;8251;53.568;10.018;2022-12-18T01:34:59;0.80;73.90
16287;DHT22;8251;53.568;10.018;2022-12-18T01:37:26;0.80;73.60
16287;DHT22;8251;53.568;10.018;2022-12-18T01:39:55;0.70;73.70
16287;DHT22;8251;53.568;10.018;2022-12-18T01:42:26;0.70;73.80
16287;DHT22;8251;53.568;10.018;2022-12-18T01:44:58;0.70;74.10
16287;DHT22;8251;53.568;10.018;2022-12-18T01:47:35;0.70;74.30
16287;DHT22;8251;53.568;10.018;2022-12-18T01:50:09;0.70;74.10
16287;DHT22;8251;53.568;10.018;2022-12-18T01:52:40;0.60;73.80
16287;DHT22;8251;53.568;10.018;2022-12-18T01:55:09;0.60;74.00
16287;DHT22;8251;53.568;10.018;2022-12-18T01:57:37;0.60;73.80
16287;DHT22;8251;53.568;10.018;2022-12-18T02:00:13;0.60;73.80
16287;DHT22;8251;53.568;10.018;2022-12-18T02:02:41;0.50;73.90
16287;DHT22;8251;53.568;10.018;2022-12-18T02:05:09;0.50;73.90
16287;DHT22;8251;53.568;10.018;2022-12-18T02:07:43;0.50;73.90
16287;DHT22;8251;53.568;10.018;2022-12-18T02:10:15;0.50;73.60
16287;DHT22;8251;53.568;10.018;2022-12-18T02:12:48;0.50;73.80
16287;DHT22;8251;53.568;10.018;2022-12-18T02:15:22;0.50;73.80
16287;DHT22;8251;53.568;10.018;2022-12-18T02:17:54;0.40;73.60
16287;DHT22;8251;53.568;10.018;2022-12-18T02:20:28;0.40;74.20
16287;DHT22;8251;53.568;10.018;2022-12-18T02:23:06;0.40;74.10
16287;DHT22;8251;53.568;10.018;2022-12-18T02:25:52;0.40;74.40
16287;DHT22;8251;53.568;10.018;2022-12-18T02:28:22;0.40;74.20
16287;DHT22;8251;53.568;10.018;2022-12-18T02:30:56;0.40;74.30
16287;DHT22;8251;53.568;10.018;2022-12-18T02:33:26;0.40;74.50
16287;DHT22;8251;53.568;10.018;2022-12-18T02:35:55;0.40;74.40
16287;DHT22;8251;53.568;10.018;2022-12-18T02:38:23;0.40;74.30
16287;DHT22;8251;53.568;10.018;2022-12-18T02:40:53;0.40;74.10
16287;DHT22;8251;53.568;10.018;2022-12-18T02:43:21;0.40;73.80
16287;DHT22;8251;53.568;10.018;2022-12-18T02:45:52;0.40;73.80
16287;DHT22;8251;53.568;10.018;2022-12-18T02:48:22;0.40;73.90
16287;DHT22;8251;53.568;10.018;2022-12-18T02:50:54;0.40;73.50
16287;DHT22;8251;53.568;10.018;2022-12-18T02:53:28;0.40;73.50
16287;DHT22;8251;53.568;10.018;2022-12-18T02:56:06;0.40;73.70
16287;DHT22;8251;53.568;10.018;2022-12-18T02:58:43;0.40;73.70
16287;DHT22;8251;53.568;10.018;2022-12-18T03:01:21;0.40;74.10
16287;DHT22;8251;53.568;10.018;2022-12-18T03:03:52;0.40;74.10
16287;DHT22;8251;53.568;10.018;2022-12-18T03:06:28;0.40;74.00
16287;DHT22;8251;53.568;10.018;2022-12-18T03:08:58;0.40;73.80
16287;DHT22;8251;53.568;10.018;2022-12-18T03:11:30;0.40;73.50
16287;DHT22;8251;53.568;10.018;2022-12-18T03:14:20;0.40;73.50
16287;DHT22;8251;53.568;10.018;2022-12-18T03:16:50;0.40;73.50
16287;DHT22;8251;53.568;10.018;2022-12-18T03:19:25;0.30;73.60
16287;DHT22;8251;53.568;10.018;2022-12-18T03:21:56;0.30;73.20
16287;DHT22;8251;53.568;10.018;2022-12-18T03:24:26;0.30;73.10
16287;DHT22;8251;53.568;10.018;2022-12-18T03:27:01;0.30;73.20
16287;DHT22;8251;53.568;10.018;2022-12-18T03:29:35;0.30;73.10
16287;DHT22;8251;53.568;10.018;2022-12-18T03:32:06;0.30;73.20
16287;DHT22;8251;53.568;10.018;2022-12-18T03:34:41;0.30;73.70
16287;DHT22;8251;53.568;10.018;2022-12-18T03:37:08;0.20;73.50
16287;DHT22;8251;53.568;10.018;2022-12-18T03:39:36;0.20;73.20
16287;DHT22;8251;53.568;10.018;2022-12-18T03:42:07;0.20;73.20
16287;DHT22;8251;53.568;10.018;2022-12-18T03:44:42;0.20;73.30
16287;DHT22;8251;53.568;10.018;2022-12-18T03:47:14;0.20;74.30
16287;DHT22;8251;53.568;10.018;2022-12-18T03:49:46;0.10;73.40
16287;DHT22;8251;53.568;10.018;2022-12-18T03:52:20;0.10;73.30
16287;DHT22;8251;53.568;10.018;2022-12-18T03:54:55;0.10;73.30
16287;DHT22;8251;53.568;10.018;2022-12-18T03:57:28;0.10;73.70
16287;DHT22;8251;53.568;10.018;2022-12-18T03:59:59;0.10;73.60
16287;DHT22;8251;53.568;10.018;2022-12-18T04:02:28;0.10;73.40
16287;DHT22;8251;53.568;10.018;2022-12-18T04:04:58;0.00;73.40
16287;DHT22;8251;53.568;10.018;2022-12-18T04:07:27;0.00;73.20
16287;DHT22;8251;53.568;10.018;2022-12-18T04:09:56;0.00;73.20
16287;DHT22;8251;53.568;10.018;2022-12-18T04:12:31;0.00;73.40
16287;DHT22;8251;53.568;10.018;2022-12-18T04:14:58;0.00;73.30
16287;DHT22;8251;53.568;10.018;2022-12-18T04:17:25;0.00;73.70
16287;DHT22;8251;53.568;10.018;2022-12-18T04:19:54;0.00;73.90
16287;DHT22;8251;53.568;10.018;2022-12-18T04:22:21;0.00;73.90
16287;DHT22;8251;53.568;10.018;2022-12-18T04:24:51;0.00;73.90
16287;DHT22;8251;53.568;10.018;2022-12-18T04:27:18;0.00;73.90
16287;DHT22;8251;53.568;10.018;2022-12-18T04:29:46;0.00;73.90
16287;DHT22;8251;53.568;10.018;2022-12-18T04:32:13;0.00;74.10
16287;DHT22;8251;53.568;10.018;2022-12-18T04:34:44;0.10;74.20
16287;DHT22;8251;53.568;10.018;2022-12-18T04:37:13;0.10;73.80
16287;DHT22;8251;53.568;10.018;2022-12-18T04:39:40;0.10;73.60
16287;DHT22;8251;53.568;10.018;2022-12-18T04:42:10;0.10;73.30
16287;DHT22;8251;53.568;10.018;2022-12-18T04:44:36;0.10;73.40
16287;DHT22;8251;53.568;10.018;2022-12-18T04:47:07;0.00;73.20
16287;DHT22;8251;53.568;10.018;2022-12-18T04:49:34;0.00;73.50
16287;DHT22;8251;53.568;10.018;2022-12-18T04:52:01;0.00;73.70
16287;DHT22;8251;53.568;10.018;2022-12-18T04:54:28;0.00;73.40
16287;DHT22;8251;53.568;10.018;2022-12-18T04:56:55;0.00;73.50
16287;DHT22;8251;53.568;10.018;2022-12-18T04:59:24;0.00;73.30
16287;DHT22;8251;53.568;10.018;2022-12-18T05:01:51;0.00;73.30
16287;DHT22;8251;53.568;10.018;2022-12-18T05:04:19;-0.10;73.40
16287;DHT22;8251;53.568;10.018;2022-12-18T05:06:46;-0.10;73.30
16287;DHT22;8251;53.568;10.018;2022-12-18T05:09:13;-0.10;73.40
16287;DHT22;8251;53.568;10.018;2022-12-18T05:11:43;-0.10;73.30
16287;DHT22;8251;53.568;10.018;2022-12-18T05:14:10;-0.10;73.40
16287;DHT22;8251;53.568;10.018;2022-12-18T05:16:37;-0.10;73.60
16287;DHT22;8251;53.568;10.018;2022-12-18T05:19:04;-0.10;73.40
16287;DHT22;8251;53.568;10.018;2022-12-18T05:21:33;-0.10;73.30
16287;DHT22;8251;53.568;10.018;2022-12-18T05:24:05;-0.10;73.30
16287;DHT22;8251;53.568;10.018;2022-12-18T05:26:32;-0.10;73.30
16287;DHT22;8251;53.568;10.018;2022-12-18T05:29:02;-0.20;73.10
16287;DHT22;8251;53.568;10.018;2022-12-18T05:31:29;-0.20;73.30
16287;DHT22;8251;53.568;10.018;2022-12-18T05:34:02;-0.20;73.60
16287;DHT22;8251;53.568;10.018;2022-12-18T05:36:32;-0.20;73.60
16287;DHT22;8251;53.568;10.018;2022-12-18T05:38:59;-0.20;73.40
16287;DHT22;8251;53.568;10.018;2022-12-18T05:41:27;-0.20;73.30
16287;DHT22;8251;53.568;10.018;2022-12-18T05:43:54;-0.20;73.20
16287;DHT22;8251;53.568;10.018;2022-12-18T05:46:21;-0.20;72.80
16287;DHT22;8251;53.568;10.018;2022-12-18T05:48:48;-0.30;72.70
16287;DHT22;8251;53.568;10.018;2022-12-18T05:51:17;-0.30;73.30
16287;DHT22;8251;53.568;10.018;2022-12-18T05:53:46;-0.30;73.10
16287;DHT22;8251;53.568;10.018;2022-12-18T05:56:16;-0.30;73.60
16287;DHT22;8251;53.568;10.018;2022-12-18T05:58:44;-0.30;73.40
16287;DHT22;8251;53.568;10.018;2022-12-18T06:01:12;-0.30;73.60
16287;DHT22;8251;53.568;10.018;2022-12-18T06:03:40;-0.30;73.20
16287;DHT22;8251;53.568;10.018;2022-12-18T06:06:13;-0.30;72.80
16287;DHT22;8251;53.568;10.018;2022-12-18T06:08:40;-0.30;73.10
16287;DHT22;8251;53.568;10.018;2022-12-18T06:11:09;-0.30;74.00
16287;DHT22;8251;53.568;10.018;2022-12-18T06:13:39;-0.30;73.30
16287;DHT22;8251;53.568;10.018;2022-12-18T06:16:07;-0.30;73.50
16287;DHT22;8251;53.568;10.018;2022-12-18T06:18:34;-0.30;73.60
16287;DHT22;8251;53.568;10.018;2022-12-18T06:21:01;-0.30;73.40
16287;DHT22;8251;53.568;10.018;2022-12-18T06:23:34;-0.30;73.20
16287;DHT22;8251;53.568;10.018;2022-12-18T06:26:04;-0.30;73.20
16287;DHT22;8251;53.568;10.018;2022-12-18T06:28:32;-0.30;73.10
16287;DHT22;8251;53.568;10.018;2022-12-18T06:30:59;-0.30;73.00
16287;DHT22;8251;53.568;10.018;2022-12-18T06:33:27;-0.30;72.90
16287;DHT22;8251;53.568;10.018;2022-12-18T06:35:54;-0.30;72.80
16287;DHT22;8251;53.568;10.018;2022-12-18T06:38:24;-0.40;73.00
16287;DHT22;8251;53.568;10.018;2022-12-18T06:40:51;-0.30;73.20
16287;DHT22;8251;53.568;10.018;2022-12-18T06:43:25;-0.40;73.10
16287;DHT22;8251;53.568;10.018;2022-12-18T06:46:06;-0.40;72.90
16287;DHT22;8251;53.568;10.018;2022-12-18T06:48:39;-0.40;73.20
16287;DHT22;8251;53.568;10.018;2022-12-18T06:51:06;-0.40;73.30
16287;DHT22;8251;53.568;10.018;2022-12-18T06:53:35;-0.40;73.40
16287;DHT22;8251;53.568;10.018;2022-12-18T06:56:03;-0.30;73.30
16287;DHT22;8251;53.568;10.018;2022-12-18T06:58:31;-0.40;72.90
16287;DHT22;8251;53.568;10.018;2022-12-18T07:01:01;-0.50;73.10
16287;DHT22;8251;53.568;10.018;2022-12-18T07:03:31;-0.50;73.10
16287;DHT22;8251;53.568;10.018;2022-12-18T07:06:01;-0.50;73.10
16287;DHT22;8251;53.568;10.018;2022-12-18T07:08:28;-0.60;72.90
16287;DHT22;8251;53.568;10.018;2022-12-18T07:10:55;-0.60;72.90
16287;DHT22;8251;53.568;10.018;2022-12-18T07:13:23;-0.60;72.70
16287;DHT22;8251;53.568;10.018;2022-12-18T07:15:49;-0.70;72.80
16287;DHT22;8251;53.568;10.018;2022-12-18T07:18:18;-0.70;72.90
16287;DHT22;8251;53.568;10.018;2022-12-18T07:20:45;-0.70;72.80
16287;DHT22;8251;53.568;10.018;2022-12-18T07:23:12;-0.80;73.10
16287;DHT22;8251;53.568;10.018;2022-12-18T07:25:39;-0.70;73.40
16287;DHT22;8251;53.568;10.018;2022-12-18T07:28:06;-0.70;73.50
16287;DHT22;8251;53.568;10.018;2022-12-18T07:30:33;-0.70;73.40
16287;DHT22;8251;53.568;10.018;2022-12-18T07:33:02;-0.70;73.60
16287;DHT22;8251;53.568;10.018;2022-12-18T07:35:30;-0.60;73.60
16287;DHT22;8251;53.568;10.018;2022-12-18T07:37:57;-0.60;73.50
16287;DHT22;8251;53.568;10.018;2022-12-18T07:40:24;-0.60;73.30
16287;DHT22;8251;53.568;10.018;2022-12-18T07:42:51;-0.60;73.20
16287;DHT22;8251;53.568;10.018;2022-12-18T07:45:18;-0.60;72.80
16287;DHT22;8251;53.568;10.018;2022-12-18T07:47:45;-0.60;73.00
16287;DHT22;8251;53.568;10.018;2022-12-18T07:50:12;-0.60;73.90
16287;DHT22;8251;53.568;10.018;2022-12-18T07:52:41;-0.60;73.30
16287;DHT22;8251;53.568;10.018;2022-12-18T07:55:08;-0.60;73.30
16287;DHT22;8251;53.568;10.018;2022-12-18T07:57:35;-0.60;72.70
16287;DHT22;8251;53.568;10.018;2022-12-18T08:00:06;-0.60;72.70
16287;DHT22;8251;53.568;10.018;2022-12-18T08:02:33;-0.70;72.50
16287;DHT22;8251;53.568;10.018;2022-12-18T08:05:01;-0.70;72.30
16287;DHT22;8251;53.568;10.018;2022-12-18T08:07:28;-0.70;72.30
16287;DHT22;8251;53.568;10.018;2022-12-18T08:09:56;-0.80;72.10
16287;DHT22;8251;53.568;10.018;2022-12-18T08:12:23;-0.80;72.50
16287;DHT22;8251;53.568;10.018;2022-12-18T08:14:50;-0.80;72.70
16287;DHT22;8251;53.568;10.018;2022-12-18T08:17:17;-0.80;72.70
16287;DHT22;8251;53.568;10.018;2022-12-18T08:19:47;-0.90;72.60
16287;DHT22;8251;53.568;10.018;2022-12-18T08:22:14;-0.90;72.60
16287;DHT22;8251;53.568;10.018;2022-12-18T08:24:40;-0.90;72.60
16287;DHT22;8251;53.568;10.018;2022-12-18T08:27:12;-0.90;72.80
16287;DHT22;8251;53.568;10.018;2022-12-18T08:29:42;-0.90;72.60
16287;DHT22;8251;53.568;10.018;2022-12-18T08:32:12;-1.00;72.50
16287;DHT22;8251;53.568;10.018;2022-12-18T08:34:42;-1.00;72.40
16287;DHT22;8251;53.568;10.018;2022-12-18T08:37:12;-1.10;72.70
16287;DHT22;8251;53.568;10.018;2022-12-18T08:39:50;-1.00;73.30
16287;DHT22;8251;53.568;10.018;2022-12-18T08:42:23;-1.00;72.90
16287;DHT22;8251;53.568;10.018;2022-12-18T08:45:08;-1.10;72.60
16287;DHT22;8251;53.568;10.018;2022-12-18T08:47:41;-1.10;72.90
16287;DHT22;8251;53.568;10.018;2022-12-18T08:50:09;-1.10;72.40
16287;DHT22;8251;53.568;10.018;2022-12-18T08:52:36;-1.10;73.30
16287;DHT22;8251;53.568;10.018;2022-12-18T08:55:04;-1.10;73.30
16287;DHT22;8251;53.568;10.018;2022-12-18T08:57:32;-1.00;73.50
16287;DHT22;8251;53.568;10.018;2022-12-18T08:59:59;-1.00;73.80
16287;DHT22;8251;53.568;10.018;2022-12-18T09:02:26;-1.00;73.50
16287;DHT22;8251;53.568;10.018;2022-12-18T09:04:53;-0.90;73.70
16287;DHT22;8251;53.568;10.018;2022-12-18T09:07:20;-0.80;73.40
16287;DHT22;8251;53.568;10.018;2022-12-18T09:09:47;-0.80;73.30
16287;DHT22;8251;53.568;10.018;2022-12-18T09:12:14;-0.80;73.30
16287;DHT22;8251;53.568;10.018;2022-12-18T09:14:43;-0.80;72.90
16287;DHT22;8251;53.568;10.018;2022-12-18T09:17:13;-0.70;73.30
16287;DHT22;8251;53.568;10.018;2022-12-18T09:19:40;-0.80;72.70
16287;DHT22;8251;53.568;10.018;2022-12-18T09:22:10;-0.70;72.90
16287;DHT22;8251;53.568;10.018;2022-12-18T09:24:37;-0.80;73.30
16287;DHT22;8251;53.568;10.018;2022-12-18T09:27:04;-0.70;73.40
16287;DHT22;8251;53.568;10.018;2022-12-18T09:29:31;-0.70;73.40
16287;DHT22;8251;53.568;10.018;2022-12-18T09:32:00;-0.60;73.10
16287;DHT22;8251;53.568;10.018;2022-12-18T09:34:28;-0.60;73.10
16287;DHT22;8251;53.568;10.018;2022-12-18T09:36:55;-0.50;73.20
16287;DHT22;8251;53.568;10.018;2022-12-18T09:39:22;-0.50;73.10
16287;DHT22;8251;53.568;10.018;2022-12-18T09:41:52;-0.40;72.80
16287;DHT22;8251;53.568;10.018;2022-12-18T09:44:24;-0.40;72.60
16287;DHT22;8251;53.568;10.018;2022-12-18T09:47:08;-0.40;72.40
16287;DHT22;8251;53.568;10.018;2022-12-18T09:49:40;-0.40;72.80
16287;DHT22;8251;53.568;10.018;2022-12-18T09:52:15;-0.30;73.00
16287;DHT22;8251;53.568;10.018;2022-12-18T09:54:47;-0.10;72.40
16287;DHT22;8251;53.568;10.018;2022-12-18T09:57:16;-0.10;73.10
16287;DHT22;8251;53.568;10.018;2022-12-18T09:59:50;0.00;73.00
16287;DHT22;8251;53.568;10.018;2022-12-18T10:02:21;0.10;72.50
16287;DHT22;8251;53.568;10.018;2022-12-18T10:05:00;0.10;72.10
16287;DHT22;8251;53.568;10.018;2022-12-18T10:07:34;0.10;72.20
16287;DHT22;8251;53.568;10.018;2022-12-18T10:10:10;0.20;71.90
16287;DHT22;8251;53.568;10.018;2022-12-18T10:12:44;0.20;71.60
16287;DHT22;8251;53.568;10.018;2022-12-18T10:15:18;0.20;71.80
16287;DHT22;8251;53.568;10.018;2022-12-18T10:17:58;0.30;72.10
16287;DHT22;8251;53.568;10.018;2022-12-18T10:20:34;0.40;72.30
16287;DHT22;8251;53.568;10.018;2022-12-18T10:23:08;0.40;72.00
16287;DHT22;8251;53.568;10.018;2022-12-18T10:25:46;0.50;72.00
16287;DHT22;8251;53.568;10.018;2022-12-18T10:28:17;0.60;71.90
16287;DHT22;8251;53.568;10.018;2022-12-18T10:30:44;0.60;71.80
16287;DHT22;8251;53.568;10.018;2022-12-18T10:33:16;0.70;71.20
16287;DHT22;8251;53.568;10.018;2022-12-18T10:35:43;0.80;71.50
16287;DHT22;8251;53.568;10.018;2022-12-18T10:38:23;0.80;71.20
16287;DHT22;8251;53.568;10.018;2022-12-18T10:40:52;0.90;71.20
16287;DHT22;8251;53.568;10.018;2022-12-18T10:43:24;0.90;70.90
16287;DHT22;8251;53.568;10.018;2022-12-18T10:46:03;0.90;71.10
16287;DHT22;8251;53.568;10.018;2022-12-18T10:48:34;1.00;70.90
16287;DHT22;8251;53.568;10.018;2022-12-18T10:51:02;1.00;70.70
16287;DHT22;8251;53.568;10.018;2022-12-18T10:53:37;1.10;70.30
16287;DHT22;8251;53.568;10.018;2022-12-18T10:56:13;1.10;69.60
16287;DHT22;8251;53.568;10.018;2022-12-18T10:58:57;1.10;69.80
16287;DHT22;8251;53.568;10.018;2022-12-18T11:01:28;1.00;69.50
16287;DHT22;8251;53.568;10.018;2022-12-18T11:04:08;1.00;70.00
16287;DHT22;8251;53.568;10.018;2022-12-18T11:06:52;1.00;70.30
16287;DHT22;8251;53.568;10.018;2022-12-18T11:09:21;1.00;70.90
16287;DHT22;8251;53.568;10.018;2022-12-18T11:11:53;1.00;70.80
16287;DHT22;8251;53.568;10.018;2022-12-18T11:14:23;1.10;70.90
16287;DHT22;8251;53.568;10.018;2022-12-18T11:16:52;1.10;70.90
16287;DHT22;8251;53.568;10.018;2022-12-18T11:19:30;1.20;70.90
16287;DHT22;8251;53.568;10.018;2022-12-18T11:21:59;1.20;70.10
16287;DHT22;8251;53.568;10.018;2022-12-18T11:24:30;1.20;70.00
16287;DHT22;8251;53.568;10.018;2022-12-18T11:27:20;1.20;69.90
16287;DHT22;8251;53.568;10.018;2022-12-18T11:29:50;1.20;70.00
16287;DHT22;8251;53.568;10.018;2022-12-18T11:32:29;1.10;69.80
16287;DHT22;8251;53.568;10.018;2022-12-18T11:35:03;1.20;69.90
16287;DHT22;8251;53.568;10.018;2022-12-18T11:37:33;1.10;69.80
16287;DHT22;8251;53.568;10.018;2022-12-18T11:40:05;1.20;70.30
16287;DHT22;8251;53.568;10.018;2022-12-18T11:42:38;1.20;70.50
16287;DHT22;8251;53.568;10.018;2022-12-18T11:45:27;1.30;70.50
16287;DHT22;8251;53.568;10.018;2022-12-18T11:48:00;1.30;69.80
16287;DHT22;8251;53.568;10.018;2022-12-18T11:50:33;1.30;69.40
16287;DHT22;8251;53.568;10.018;2022-12-18T11:53:10;1.30;69.60
16287;DHT22;8251;53.568;10.018;2022-12-18T11:55:44;1.40;70.10
16287;DHT22;8251;53.568;10.018;2022-12-18T11:58:24;1.30;70.10
16287;DHT22;8251;53.568;10.018;2022-12-18T12:01:00;1.40;70.00
16287;DHT22;8251;53.568;10.018;2022-12-18T12:03:44;1.40;70.40
16287;DHT22;8251;53.568;10.018;2022-12-18T12:06:20;1.50;70.10
16287;DHT22;8251;53.568;10.018;2022-12-18T12:08:59;1.50;70.30
16287;DHT22;8251;53.568;10.018;2022-12-18T12:11:47;1.50;69.70
16287;DHT22;8251;53.568;10.018;2022-12-18T12:14:42;1.50;70.00
16287;DHT22;8251;53.568;10.018;2022-12-18T12:17:22;1.50;69.90
16287;DHT22;8251;53.568;10.018;2022-12-18T12:19:57;1.60;70.00
16287;DHT22;8251;53.568;10.018;2022-12-18T12:22:36;1.60;69.90
16287;DHT22;8251;53.568;10.018;2022-12-18T12:25:19;1.60;69.90
16287;DHT22;8251;53.568;10.018;2022-12-18T12:27:54;1.60;69.90
16287;DHT22;8251;53.568;10.018;2022-12-18T12:30:30;1.60;69.90
16287;DHT22;8251;53.568;10.018;2022-12-18T12:33:11;1.60;70.00
16287;DHT22;8251;53.568;10.018;2022-12-18T12:35:46;1.70;69.70
16287;DHT22;8251;53.568;10.018;2022-12-18T12:38:19;1.70;69.70
16287;DHT22;8251;53.568;10.018;2022-12-18T12:40:51;1.70;69.30
16287;DHT22;8251;53.568;10.018;2022-12-18T12:43:28;1.70;69.60
16287;DHT22;8251;53.568;10.018;2022-12-18T12:46:07;1.70;69.70
16287;DHT22;8251;53.568;10.018;2022-12-18T12:48:43;1.70;69.70
16287;DHT22;8251;53.568;10.018;2022-12-18T12:51:18;1.70;69.60
16287;DHT22;8251;53.568;10.018;2022-12-18T12:53:48;1.70;69.80
16287;DHT22;8251;53.568;10.018;2022-12-18T12:56:19;1.60;69.90
16287;DHT22;8251;53.568;10.018;2022-12-18T12:58:55;1.70;70.00
16287;DHT22;8251;53.568;10.018;2022-12-18T13:01:33;1.70;69.90
16287;DHT22;8251;53.568;10.018;2022-12-18T13:04:12;1.70;70.10
16287;DHT22;8251;53.568;10.018;2022-12-18T13:06:46;1.70;70.00
16287;DHT22;8251;53.568;10.018;2022-12-18T13:09:30;1.60;69.90
16287;DHT22;8251;53.568;10.018;2022-12-18T13:12:16;1.60;70.20
16287;DHT22;8251;53.568;10.018;2022-12-18T13:15:13;1.70;70.20
16287;DHT22;8251;53.568;10.018;2022-12-18T13:17:47;1.70;70.00
16287;DHT22;8251;53.568;10.018;2022-12-18T13:20:21;1.70;70.00
16287;DHT22;8251;53.568;10.018;2022-12-18T13:22:51;1.80;70.00
16287;DHT22;8251;53.568;10.018;2022-12-18T13:25:32;1.80;69.70
16287;DHT22;8251;53.568;10.018;2022-12-18T13:28:06;1.80;69.90
16287;DHT22;8251;53.568;10.018;2022-12-18T13:33:42;1.90;69.80
16287;DHT22;8251;53.568;10.018;2022-12-18T13:36:15;1.90;69.70
16287;DHT22;8251;53.568;10.018;2022-12-18T13:38:45;1.90;69.70
16287;DHT22;8251;53.568;10.018;2022-12-18T13:41:27;1.90;69.40
16287;DHT22;8251;53.568;10.018;2022-12-18T13:43:55;1.80;69.50
16287;DHT22;8251;53.568;10.018;2022-12-18T13:46:27;1.80;69.70
16287;DHT22;8251;53.568;10.018;2022-12-18T13:48:58;1.70;69.40
16287;DHT22;8251;53.568;10.018;2022-12-18T13:51:34;1.70;69.50
16287;DHT22;8251;53.568;10.018;2022-12-18T13:54:17;1.60;69.90
16287;DHT22;8251;53.568;10.018;2022-12-18T13:56:48;1.60;69.70
16287;DHT22;8251;53.568;10.018;2022-12-18T13:59:17;1.50;69.80
16287;DHT22;8251;53.568;10.018;2022-12-18T14:01:47;1.50;69.80
16287;DHT22;8251;53.568;10.018;2022-12-18T14:04:24;1.40;70.00
16287;DHT22;8251;53.568;10.018;2022-12-18T14:06:55;1.40;70.10
16287;DHT22;8251;53.568;10.018;2022-12-18T14:09:27;1.40;70.30
16287;DHT22;8251;53.568;10.018;2022-12-18T14:11:57;1.30;70.50
16287;DHT22;8251;53.568;10.018;2022-12-18T14:14:42;1.40;70.80
16287;DHT22;8251;53.568;10.018;2022-12-18T14:17:11;1.30;70.70
16287;DHT22;8251;53.568;10.018;2022-12-18T14:19:42;1.30;71.00
16287;DHT22;8251;53.568;10.018;2022-12-18T14:22:16;1.30;71.30
16287;DHT22;8251;53.568;10.018;2022-12-18T14:24:44;1.30;71.10
16287;DHT22;8251;53.568;10.018;2022-12-18T14:27:22;1.30;71.20
16287;DHT22;8251;53.568;10.018;2022-12-18T14:29:50;1.20;71.20
16287;DHT22;8251;53.568;10.018;2022-12-18T14:32:19;1.20;71.50
16287;DHT22;8251;53.568;10.018;2022-12-18T14:34:47;1.30;71.60
16287;DHT22;8251;53.568;10.018;2022-12-18T14:37:16;1.20;71.50
16287;DHT22;8251;53.568;10.018;2022-12-18T14:39:57;1.10;71.50
16287;DHT22;8251;53.568;10.018;2022-12-18T14:42:28;1.00;71.70
16287;DHT22;8251;53.568;10.018;2022-12-18T14:47:58;1.10;72.50
16287;DHT22;8251;53.568;10.018;2022-12-18T14:50:27;1.10;72.70
16287;DHT22;8251;53.568;10.018;2022-12-18T14:52:54;1.10;72.30
16287;DHT22;8251;53.568;10.018;2022-12-18T14:55:21;1.10;72.40
16287;DHT22;8251;53.568;10.018;2022-12-18T14:57:54;1.10;72.50
16287;DHT22;8251;53.568;10.018;2022-12-18T15:00:26;1.10;72.60
16287;DHT22;8251;53.568;10.018;2022-12-18T15:02:58;1.20;72.30
16287;DHT22;8251;53.568;10.018;2022-12-18T15:05:27;1.00;72.00
16287;DHT22;8251;53.568;10.018;2022-12-18T15:07:55;1.00;73.20
16287;DHT22;8251;53.568;10.018;2022-12-18T15:10:24;1.00;72.50
16287;DHT22;8251;53.568;10.018;2022-12-18T15:13:16;0.90;72.30
16287;DHT22;8251;53.568;10.018;2022-12-18T15:15:48;0.90;72.50
16287;DHT22;8251;53.568;10.018;2022-12-18T15:18:33;0.80;72.80
16287;DHT22;8251;53.568;10.018;2022-12-18T15:21:08;0.80;73.20
16287;DHT22;8251;53.568;10.018;2022-12-18T15:23:37;0.80;73.10
16287;DHT22;8251;53.568;10.018;2022-12-18T15:26:06;0.80;73.20
16287;DHT22;8251;53.568;10.018;2022-12-18T15:28:37;0.80;73.20
16287;DHT22;8251;53.568;10.018;2022-12-18T15:31:17;0.80;73.20
16287;DHT22;8251;53.568;10.018;2022-12-18T15:34:11;0.80;73.20
16287;DHT22;8251;53.568;10.018;2022-12-18T15:36:39;0.80;73.50
16287;DHT22;8251;53.568;10.018;2022-12-18T15:39:06;0.80;73.80
16287;DHT22;8251;53.568;10.018;2022-12-18T15:41:35;0.80;73.70
16287;DHT22;8251;53.568;10.018;2022-12-18T15:44:20;0.80;73.60
16287;DHT22;8251;53.568;10.018;2022-12-18T15:46:48;0.90;73.60
16287;DHT22;8251;53.568;10.018;2022-12-18T15:49:15;0.80;73.60
16287;DHT22;8251;53.568;10.018;2022-12-18T15:51:42;0.90;73.80
16287;DHT22;8251;53.568;10.018;2022-12-18T15:54:11;0.80;73.90
16287;DHT22;8251;53.568;10.018;2022-12-18T15:56:41;0.90;73.80
16287;DHT22;8251;53.568;10.018;2022-12-18T15:59:28;0.90;74.00
16287;DHT22;8251;53.568;10.018;2022-12-18T16:01:55;0.90;74.00
16287;DHT22;8251;53.568;10.018;2022-12-18T16:04:23;1.00;73.80
16287;DHT22;8251;53.568;10.018;2022-12-18T16:06:50;0.90;73.70
16287;DHT22;8251;53.568;10.018;2022-12-18T16:09:18;0.90;74.30
16287;DHT22;8251;53.568;10.018;2022-12-18T16:11:46;0.80;73.60
16287;DHT22;8251;53.568;10.018;2022-12-18T16:14:17;0.80;73.90